createdAt,value
2022-12-07T00:00:08.586Z,101872.72
2022-12-07T00:00:39.980Z,101870.31
2022-12-07T00:01:14.446Z,101861.72
2022-12-07T00:01:47.397Z,101865.56
2022-12-07T00:02:18.952Z,101867.13
2022-12-07T00:02:50.370Z,101866.31
2022-12-07T00:03:21.895Z,101866.31
2022-12-07T00:03:55.862Z,101858.06
2022-12-07T00:04:27.215Z,101867.44
2022-12-07T00:04:58.531Z,101861.56
2022-12-07T00:05:30.852Z,101867.44
2022-12-07T00:06:04.775Z,101869.03
2022-12-07T00:06:38.571Z,101865.56
2022-12-07T00:07:09.952Z,101856.47
2022-12-07T00:07:41.306Z,101861.56
2022-12-07T00:08:12.798Z,101865.34
2022-12-07T00:08:45.141Z,101873.94
2022-12-07T00:09:18.099Z,101868.56
2022-12-07T00:09:49.523Z,101865.66
2022-12-07T00:10:20.895Z,101866.97
2022-12-07T00:10:52.391Z,101873.16
2022-12-07T00:11:24.219Z,101872.84
2022-12-07T00:11:55.577Z,101873.94
2022-12-07T00:12:26.906Z,101867.75
2022-12-07T00:12:58.222Z,101867.75
2022-12-07T00:13:30.310Z,101867.75
2022-12-07T00:14:05.514Z,101864.56
2022-12-07T00:14:36.839Z,101858.66
2022-12-07T00:15:08.689Z,101864.88
2022-12-07T00:15:40.095Z,101859.16
2022-12-07T00:16:17.290Z,101873.94
2022-12-07T00:16:50.784Z,101859.47
2022-12-07T00:17:22.176Z,101871.25
2022-12-07T00:17:53.623Z,101863.75
2022-12-07T00:18:25.148Z,101861.56
2022-12-07T00:18:57.171Z,101860.47
2022-12-07T00:19:28.543Z,101864.56
2022-12-07T00:20:18.582Z,101863.47
2022-12-07T00:20:50.083Z,101864.56
2022-12-07T00:21:24.947Z,101868.06
2022-12-07T00:21:56.347Z,101863.75
2022-12-07T00:22:27.745Z,101861.38
2022-12-07T00:22:59.190Z,101860.56
2022-12-07T00:23:30.658Z,101857.56
2022-12-07T00:24:03.657Z,101854.97
2022-12-07T00:24:35.208Z,101858.97
2022-12-07T00:25:06.792Z,101858.19
2022-12-07T00:25:38.148Z,101857.38
2022-12-07T00:26:15.034Z,101859.56
2022-12-07T00:26:46.373Z,101861.47
2022-12-07T00:27:17.737Z,101854.28
2022-12-07T00:27:49.118Z,101855.59
2022-12-07T00:28:20.439Z,101856.38
2022-12-07T00:28:57.358Z,101864.97
2022-12-07T00:29:29.258Z,101857.19
2022-12-07T00:30:01.110Z,101851.78
2022-12-07T00:30:32.691Z,101857.50
2022-12-07T00:31:09.419Z,101859.88
2022-12-07T00:31:40.891Z,101855.59
2022-12-07T00:32:12.403Z,101854.50
2022-12-07T00:32:43.787Z,101855.59
2022-12-07T00:33:15.156Z,101845.09
2022-12-07T00:33:47.571Z,101847.81
2022-12-07T00:34:21.794Z,101849.41
2022-12-07T00:34:53.137Z,101848.59
2022-12-07T00:35:24.462Z,101850.19
2022-12-07T00:35:57.439Z,101849.41
2022-12-07T00:36:28.834Z,101846.69
2022-12-07T00:37:00.204Z,101852.09
2022-12-07T00:37:31.714Z,101844.00
2022-12-07T00:38:03.170Z,101850.19
2022-12-07T00:38:36.136Z,101842.09
2022-12-07T00:39:07.553Z,101844.81
2022-12-07T00:39:38.926Z,101848.28
2022-12-07T00:40:10.637Z,101839.72
2022-12-07T00:40:42.060Z,101844.81
2022-12-07T00:41:18.992Z,101845.59
2022-12-07T00:41:50.393Z,101836.72
2022-12-07T00:42:21.752Z,101845.59
2022-12-07T00:42:53.137Z,101839.41
2022-12-07T00:43:24.650Z,101845.09
2022-12-07T00:43:56.343Z,101839.41
2022-12-07T00:44:27.792Z,101840.81
2022-12-07T00:44:59.113Z,101842.91
2022-12-07T00:45:30.501Z,101841.31
2022-12-07T00:46:02.248Z,101829.53
2022-12-07T00:46:34.179Z,101837.81
2022-12-07T00:47:05.674Z,101838.63
2022-12-07T00:47:37.005Z,101827.63
2022-12-07T00:48:08.386Z,101838.63
2022-12-07T00:48:40.292Z,101834.00
2022-12-07T00:49:11.793Z,101831.63
2022-12-07T00:49:43.215Z,101840.22
2022-12-07T00:50:14.695Z,101837.00
2022-12-07T00:50:46.112Z,101832.22
2022-12-07T00:51:20.573Z,101841.31
2022-12-07T00:51:51.972Z,101833.03
2022-12-07T00:52:23.340Z,101836.22
2022-12-07T00:52:54.859Z,101843.50
2022-12-07T00:53:27.222Z,101838.41
2022-12-07T00:53:58.584Z,101839.22
2022-12-07T00:54:30.232Z,101836.03
2022-12-07T00:55:01.935Z,101830.16
2022-12-07T00:55:37.241Z,101843.00
2022-12-07T00:56:12.468Z,101842.22
2022-12-07T00:56:43.919Z,101839.06
2022-12-07T00:57:15.296Z,101832.06
2022-12-07T00:57:46.784Z,101836.66
2022-12-07T00:58:18.194Z,101835.84
2022-12-07T00:59:16.090Z,101839.66
2022-12-07T00:59:47.487Z,101844.25
2022-12-07T01:00:19.034Z,101839.97
2022-12-07T01:00:50.813Z,101841.06
2022-12-07T01:01:23.209Z,101839.47
2022-12-07T01:01:54.610Z,101829.78
2022-12-07T01:02:25.978Z,101835.97
2022-12-07T01:02:57.502Z,101837.06
2022-12-07T01:03:29.354Z,101837.88
2022-12-07T01:04:04.367Z,101830.88
2022-12-07T01:04:35.951Z,101834.66
2022-12-07T01:05:07.796Z,101830.06
2022-12-07T01:05:39.559Z,101833.56
2022-12-07T01:06:15.571Z,101835.16
2022-12-07T01:06:46.902Z,101831.19
2022-12-07T01:07:18.279Z,101828.19
2022-12-07T01:07:49.687Z,101832.78
2022-12-07T01:08:22.062Z,101829.28
2022-12-07T01:08:53.867Z,101828.78
2022-12-07T01:09:25.222Z,101828.19
2022-12-07T01:09:56.547Z,101832.78
2022-12-07T01:10:28.468Z,101833.06
2022-12-07T01:11:06.133Z,101830.69
2022-12-07T01:11:37.494Z,101833.06
2022-12-07T01:12:08.919Z,101829.59
2022-12-07T01:12:41.314Z,101837.66
2022-12-07T01:13:12.719Z,101833.06
2022-12-07T01:13:44.699Z,101830.69
2022-12-07T01:14:16.038Z,101833.06
2022-12-07T01:14:47.506Z,101840.06
2022-12-07T01:15:19.194Z,101831.47
2022-12-07T01:15:50.746Z,101826.69
2022-12-07T01:16:24.169Z,101829.59
2022-12-07T01:16:55.612Z,101832.09
2022-12-07T01:17:27.018Z,101835.78
2022-12-07T01:17:58.510Z,101834.16
2022-12-07T01:18:32.427Z,101833.06
2022-12-07T01:19:05.713Z,101829.59
2022-12-07T01:19:37.151Z,101836.56
2022-12-07T01:20:09.056Z,101845.44
2022-12-07T01:20:40.523Z,101836.88
2022-12-07T01:21:14.245Z,101836.56
2022-12-07T01:21:45.738Z,101832.28
2022-12-07T01:22:17.213Z,101837.66
2022-12-07T01:23:07.322Z,101834.16
2022-12-07T01:23:39.071Z,101841.47
2022-12-07T01:24:11.906Z,101836.38
2022-12-07T01:24:43.241Z,101830.97
2022-12-07T01:25:14.622Z,101836.38
2022-12-07T01:25:46.618Z,101833.69
2022-12-07T01:26:20.799Z,101836.19
2022-12-07T01:26:52.190Z,101836.66
2022-12-07T01:27:23.606Z,101841.25
2022-12-07T01:27:54.956Z,101836.50
2022-12-07T01:28:27.183Z,101838.56
2022-12-07T01:29:00.187Z,101837.59
2022-12-07T01:29:31.563Z,101838.06
2022-12-07T01:30:06.336Z,101846.16
2022-12-07T01:30:37.761Z,101845.84
2022-12-07T01:31:17.380Z,101846.97
2022-12-07T01:31:49.969Z,101845.41
2022-12-07T01:32:21.694Z,101834.13
2022-12-07T01:32:53.042Z,101838.69
2022-12-07T01:33:24.493Z,101835.72
2022-12-07T01:33:58.476Z,101835.50
2022-12-07T01:34:29.908Z,101841.09
2022-12-07T01:35:01.341Z,101841.09
2022-12-07T01:35:34.868Z,101838.41
2022-12-07T01:36:17.109Z,101844.59
2022-12-07T01:36:48.755Z,101837.59
2022-12-07T01:37:20.356Z,101836.31
2022-12-07T01:37:51.753Z,101836.81
2022-12-07T01:38:23.163Z,101836.81
2022-12-07T01:39:03.405Z,101844.59
2022-12-07T01:39:34.787Z,101837.09
2022-12-07T01:40:08.430Z,101840.59
2022-12-07T01:40:39.876Z,101836.31
2022-12-07T01:41:11.501Z,101835.50
2022-12-07T01:41:44.399Z,101840.91
2022-12-07T01:42:16.255Z,101842.00
2022-12-07T01:42:47.608Z,101837.72
2022-12-07T01:43:19.955Z,101843.09
2022-12-07T01:44:11.967Z,101835.81
2022-12-07T01:45:20.489Z,101838.81
2022-12-07T01:45:52.071Z,101836.41
2022-12-07T01:46:23.571Z,101837.22
2022-12-07T01:46:58.178Z,101835.31
2022-12-07T01:47:29.632Z,101838.31
2022-12-07T01:48:01.051Z,101841.00
2022-12-07T01:48:37.379Z,101845.59
2022-12-07T01:49:18.688Z,101833.53
2022-12-07T01:49:50.371Z,101834.63
2022-12-07T01:50:25.318Z,101841.31
2022-12-07T01:51:00.277Z,101842.19
2022-12-07T01:51:31.752Z,101839.00
2022-12-07T01:52:09.916Z,101841.91
2022-12-07T01:52:43.992Z,101831.56
2022-12-07T01:53:16.765Z,101833.63
2022-12-07T01:53:48.252Z,101833.63
2022-12-07T01:54:21.880Z,101840.91
2022-12-07T01:54:58.706Z,101841.09
2022-12-07T01:55:30.679Z,101839.81
2022-12-07T01:56:02.274Z,101843.00
2022-12-07T01:56:34.109Z,101838.72
2022-12-07T01:57:08.573Z,101837.13
2022-12-07T01:57:44.205Z,101839.00
2022-12-07T01:58:17.317Z,101837.91
2022-12-07T01:58:50.581Z,101841.41
2022-12-07T01:59:25.771Z,101836.31
2022-12-07T01:59:58.174Z,101836.31
2022-12-07T02:00:29.511Z,101847.09
2022-12-07T02:01:01.299Z,101838.22
2022-12-07T02:01:32.981Z,101838.53
2022-12-07T02:02:10.913Z,101835.03
2022-12-07T02:02:52.087Z,101837.75
2022-12-07T02:03:31.217Z,101844.22
2022-12-07T02:04:02.721Z,101842.34
2022-12-07T02:04:34.651Z,101846.13
2022-12-07T02:05:07.191Z,101846.94
2022-12-07T02:05:41.530Z,101844.22
2022-12-07T02:06:18.943Z,101842.34
2022-12-07T02:06:51.623Z,101844.22
2022-12-07T02:07:24.390Z,101846.44
2022-12-07T02:07:57.838Z,101835.16
2022-12-07T02:08:29.303Z,101841.03
2022-12-07T02:09:00.677Z,101832.94
2022-12-07T02:09:32.014Z,101843.44
2022-12-07T02:10:13.589Z,101845.03
2022-12-07T02:10:44.964Z,101838.03
2022-12-07T02:11:17.435Z,101840.25
2022-12-07T02:11:49.058Z,101835.66
2022-12-07T02:12:22.499Z,101838.34
2022-12-07T02:12:59.943Z,101837.53
2022-12-07T02:13:34.108Z,101835.34
2022-12-07T02:14:06.082Z,101837.53
2022-12-07T02:14:37.841Z,101834.03
2022-12-07T02:15:09.451Z,101838.03
2022-12-07T02:16:22.382Z,101833.75
2022-12-07T02:17:05.480Z,101833.25
2022-12-07T02:18:05.339Z,101828.97
2022-12-07T02:18:45.603Z,101831.34
2022-12-07T02:19:48.018Z,101831.66
2022-12-07T02:20:28.993Z,101827.38
2022-12-07T02:21:08.937Z,101835.44
2022-12-07T02:21:59.370Z,101830.34
2022-12-07T02:23:11.876Z,101831.44
2022-12-07T02:24:14.302Z,101823.88
2022-12-07T02:25:07.250Z,101836.25
2022-12-07T02:25:53.647Z,101828.16
2022-12-07T02:26:51.070Z,101827.38
2022-12-07T02:27:52.659Z,101831.66
2022-12-07T02:28:32.715Z,101833.53
2022-12-07T02:29:09.915Z,101827.06
2022-12-07T02:30:02.268Z,101835.44
2022-12-07T02:30:39.049Z,101827.06
2022-12-07T02:31:16.958Z,101829.25
2022-12-07T02:32:08.051Z,101829.75
2022-12-07T02:32:45.603Z,101830.84
2022-12-07T02:33:27.087Z,101828.66
2022-12-07T02:34:08.835Z,101828.97
2022-12-07T02:34:49.570Z,101827.88
2022-12-07T02:35:26.285Z,101826.56
2022-12-07T02:36:06.635Z,101828.66
2022-12-07T02:36:44.724Z,101831.34
2022-12-07T02:37:26.670Z,101825.97
2022-12-07T02:38:25.655Z,101826.25
2022-12-07T02:39:04.457Z,101830.56
2022-12-07T02:39:45.404Z,101825.16
2022-12-07T02:40:26.071Z,101818.19
2022-12-07T02:41:15.957Z,101827.06
2022-12-07T02:41:51.728Z,101825.97
2022-12-07T02:42:31.365Z,101820.56
2022-12-07T02:43:11.154Z,101828.34
2022-12-07T02:43:55.414Z,101824.88
2022-12-07T02:44:29.278Z,101822.97
2022-12-07T02:45:02.524Z,101819.78
2022-12-07T02:45:37.367Z,101818.38
2022-12-07T02:46:32.035Z,101823.78
2022-12-07T02:47:10.566Z,101816.47
2022-12-07T02:47:42.791Z,101827.56
2022-12-07T02:48:17.716Z,101821.38
2022-12-07T02:49:09.290Z,101817.28
2022-12-07T02:49:41.663Z,101819.97
2022-12-07T02:50:13.294Z,101818.88
2022-12-07T02:50:54.573Z,101826.63
2022-12-07T02:51:26.671Z,101820.47
2022-12-07T02:51:58.110Z,101822.38
2022-12-07T02:52:29.487Z,101826.63
2022-12-07T02:53:01.172Z,101821.56
2022-12-07T02:53:35.875Z,101830.94
2022-12-07T02:54:20.282Z,101831.72
2022-12-07T02:54:51.609Z,101826.34
2022-12-07T02:55:29.058Z,101825.22
2022-12-07T02:56:19.035Z,101833.03
2022-12-07T02:57:02.008Z,101824.94
2022-12-07T02:58:05.714Z,101824.63
2022-12-07T02:58:59.987Z,101824.94
2022-12-07T02:59:53.629Z,101824.63
2022-12-07T03:00:25.192Z,101824.63
2022-12-07T03:01:22.910Z,101821.94
2022-12-07T03:02:27.836Z,101822.75
2022-12-07T03:03:05.138Z,101819.25
2022-12-07T03:03:38.381Z,101821.16
2022-12-07T03:04:25.535Z,101823.53
2022-12-07T03:05:02.871Z,101821.94
2022-12-07T03:06:06.698Z,101820.34
2022-12-07T03:06:47.766Z,101826.53
2022-12-07T03:07:45.864Z,101821.16
2022-12-07T03:08:49.811Z,101823.03
2022-12-07T03:09:33.198Z,101819.03
2022-12-07T03:10:23.636Z,101834.91
2022-12-07T03:11:07.569Z,101830.31
2022-12-07T03:11:52.667Z,101830.31
2022-12-07T03:12:48.695Z,101828.72
2022-12-07T03:13:35.500Z,101822.25
2022-12-07T03:14:20.687Z,101819.84
2022-12-07T03:15:17.278Z,101823.84
2022-12-07T03:16:05.970Z,101821.16
2022-12-07T03:16:45.225Z,101820.34
2022-12-07T03:17:22.682Z,101814.16
2022-12-07T03:18:13.950Z,101815.75
2022-12-07T03:19:08.546Z,101826.22
2022-12-07T03:19:42.278Z,101811.97
2022-12-07T03:20:19.764Z,101818.94
2022-12-07T03:20:54.405Z,101815.94
2022-12-07T03:21:33.623Z,101817.84
2022-12-07T03:22:11.068Z,101821.34
2022-12-07T03:22:45.437Z,101818.66
2022-12-07T03:23:19.397Z,101821.34
2022-12-07T03:23:57.719Z,101826.72
2022-12-07T03:24:34.964Z,101827.53
2022-12-07T03:25:12.920Z,101822.94
2022-12-07T03:25:48.821Z,101815.94
2022-12-07T03:26:24.012Z,101820.53
2022-12-07T03:27:04.557Z,101818.66
2022-12-07T03:27:57.749Z,101818.66
2022-12-07T03:28:34.038Z,101818.94
2022-12-07T03:29:19.058Z,101810.06
2022-12-07T03:29:59.122Z,101822.75
2022-12-07T03:30:58.161Z,101818.16
2022-12-07T03:31:34.240Z,101816.56
2022-12-07T03:32:34.300Z,101818.44
2022-12-07T03:33:14.958Z,101814.97
2022-12-07T03:34:00.459Z,101822.75
2022-12-07T03:34:41.021Z,101821.16
2022-12-07T03:35:38.351Z,101816.56
2022-12-07T03:36:15.964Z,101813.06
2022-12-07T03:37:21.380Z,101810.66
2022-12-07T03:37:56.139Z,101811.97
2022-12-07T03:38:35.006Z,101816.56
2022-12-07T03:39:24.796Z,101815.75
2022-12-07T03:40:08.054Z,101809.88
2022-12-07T03:40:50.705Z,101812.06
2022-12-07T03:41:30.495Z,101810.97
2022-12-07T03:42:04.418Z,101807.78
2022-12-07T03:42:36.164Z,101803.19
2022-12-07T03:43:08.285Z,101807.78
2022-12-07T03:43:41.279Z,101802.72
2022-12-07T03:44:31.947Z,101815.56
2022-12-07T03:45:04.811Z,101801.91
2022-12-07T03:45:43.369Z,101805.88
2022-12-07T03:46:29.485Z,101802.38
2022-12-07T03:47:06.857Z,101801.63
2022-12-07T03:48:09.287Z,101807.00
2022-12-07T03:49:07.512Z,101804.59
2022-12-07T03:49:43.731Z,101808.41
2022-12-07T03:50:26.305Z,101803.31
2022-12-07T03:51:21.990Z,101802.50
2022-12-07T03:52:13.661Z,101799.81
2022-12-07T03:52:56.187Z,101799.31
2022-12-07T03:53:41.493Z,101809.81
2022-12-07T03:55:17.435Z,101810.91
2022-12-07T03:55:50.107Z,101808.19
2022-12-07T03:56:23.503Z,101804.22
2022-12-07T03:56:56.932Z,101805.50
2022-12-07T03:57:31.343Z,101805.81
2022-12-07T03:58:08.515Z,101812.50
2022-12-07T03:58:41.647Z,101805.22
2022-12-07T03:59:15.275Z,101811.41
2022-12-07T03:59:47.700Z,101813.00
2022-12-07T04:00:19.735Z,101814.38
2022-12-07T04:00:52.387Z,101811.41
2022-12-07T04:01:24.935Z,101810.31
2022-12-07T04:01:58.705Z,101811.09
2022-12-07T04:02:30.397Z,101807.91
2022-12-07T04:03:01.846Z,101813.00
2022-12-07T04:03:33.310Z,101806.00
2022-12-07T04:04:04.808Z,101810.59
2022-12-07T04:04:36.433Z,101812.19
2022-12-07T04:05:26.755Z,101802.81
2022-12-07T04:05:59.680Z,101810.31
2022-12-07T04:06:31.072Z,101813.00
2022-12-07T04:07:02.743Z,101808.69
2022-12-07T04:07:34.351Z,101805.22
2022-12-07T04:08:05.893Z,101815.69
2022-12-07T04:08:37.446Z,101808.69
2022-12-07T04:09:08.860Z,101802.22
2022-12-07T04:09:40.318Z,101801.41
2022-12-07T04:10:12.470Z,101800.31
2022-12-07T04:10:43.855Z,101795.22
2022-12-07T04:11:15.294Z,101799.53
2022-12-07T04:11:47.111Z,101803.81
2022-12-07T04:12:18.797Z,101798.13
2022-12-07T04:12:50.185Z,101793.84
2022-12-07T04:13:21.659Z,101795.09
2022-12-07T04:14:11.783Z,101795.91
2022-12-07T04:14:43.113Z,101800.97
2022-12-07T04:15:14.483Z,101792.09
2022-12-07T04:15:45.975Z,101792.09
2022-12-07T04:16:17.375Z,101796.38
2022-12-07T04:16:54.630Z,101792.59
2022-12-07T04:17:26.000Z,101795.59
2022-12-07T04:17:57.514Z,101793.69
2022-12-07T04:18:28.874Z,101797.19
2022-12-07T04:19:00.364Z,101794.00
2022-12-07T04:19:34.167Z,101795.09
2022-12-07T04:20:06.825Z,101793.69
2022-12-07T04:20:38.204Z,101792.59
2022-12-07T04:21:09.554Z,101789.91
2022-12-07T04:21:40.942Z,101786.41
2022-12-07T04:22:12.511Z,101791.78
2022-12-07T04:22:43.892Z,101789.09
2022-12-07T04:23:15.266Z,101787.22
2022-12-07T04:23:46.634Z,101788.81
2022-12-07T04:24:18.566Z,101791.78
2022-12-07T04:24:49.946Z,101784.50
2022-12-07T04:25:21.358Z,101790.41
2022-12-07T04:25:52.674Z,101790.69
2022-12-07T04:26:24.083Z,101791.78
2022-12-07T04:26:55.700Z,101786.41
2022-12-07T04:27:27.032Z,101793.41
2022-12-07T04:27:58.429Z,101788.81
2022-12-07T04:28:29.871Z,101789.59
2022-12-07T04:29:06.104Z,101794.50
2022-12-07T04:29:38.975Z,101792.28
2022-12-07T04:30:11.130Z,101796.88
2022-12-07T04:30:42.501Z,101792.28
2022-12-07T04:31:13.940Z,101796.88
2022-12-07T04:31:45.696Z,101794.69
2022-12-07T04:32:17.133Z,101797.69
2022-12-07T04:32:48.520Z,101793.41
2022-12-07T04:33:19.857Z,101792.28
2022-12-07T04:33:51.452Z,101800.69
2022-12-07T04:34:22.958Z,101799.59
2022-12-07T04:35:12.998Z,101799.09
2022-12-07T04:36:03.204Z,101793.69
2022-12-07T04:36:34.767Z,101797.50
2022-12-07T04:37:25.156Z,101801.28
2022-12-07T04:37:56.498Z,101793.19
2022-12-07T04:38:27.866Z,101794.28
2022-12-07T04:38:59.312Z,101784.16
2022-12-07T04:39:32.964Z,101799.22
2022-12-07T04:40:05.142Z,101786.84
2022-12-07T04:40:36.671Z,101789.53
2022-12-07T04:41:09.437Z,101787.63
2022-12-07T04:41:40.782Z,101787.16
2022-12-07T04:42:13.671Z,101790.03
2022-12-07T04:42:45.066Z,101789.25
2022-12-07T04:43:16.476Z,101792.72
2022-12-07T04:43:47.871Z,101789.25
2022-12-07T04:44:20.273Z,101794.28
2022-12-07T04:44:52.070Z,101793.03
2022-12-07T04:45:23.548Z,101787.63
2022-12-07T04:45:54.920Z,101788.91
2022-12-07T04:46:27.466Z,101795.91
2022-12-07T04:46:59.032Z,101794.00
2022-12-07T04:47:30.515Z,101794.78
2022-12-07T04:48:01.851Z,101795.09
2022-12-07T04:48:33.408Z,101799.09
2022-12-07T04:49:04.808Z,101790.03
2022-12-07T04:49:36.170Z,101797.00
2022-12-07T04:50:08.231Z,101793.19
2022-12-07T04:50:44.599Z,101789.41
2022-12-07T04:51:21.385Z,101791.59
2022-12-07T04:51:53.131Z,101793.19
2022-12-07T04:52:24.511Z,101790.84
2022-12-07T04:52:55.901Z,101796.38
2022-12-07T04:53:27.470Z,101792.09
2022-12-07T04:53:58.983Z,101791.78
2022-12-07T04:54:30.312Z,101787.50
2022-12-07T04:55:01.709Z,101792.91
2022-12-07T04:55:33.081Z,101798.78
2022-12-07T04:56:04.826Z,101786.09
2022-12-07T04:56:36.798Z,101790.41
2022-12-07T04:57:08.232Z,101781.31
2022-12-07T04:57:39.599Z,101785.13
2022-12-07T04:58:11.286Z,101790.69
2022-12-07T04:58:43.856Z,101778.13
2022-12-07T04:59:17.404Z,101781.81
2022-12-07T04:59:48.783Z,101783.22
2022-12-07T05:00:20.323Z,101785.31
2022-12-07T05:00:55.130Z,101777.03
2022-12-07T05:01:26.475Z,101775.94
2022-12-07T05:01:57.916Z,101781.81
2022-12-07T05:02:29.601Z,101775.13
2022-12-07T05:03:01.053Z,101784.00
2022-12-07T05:03:32.455Z,101779.72
2022-12-07T05:04:04.208Z,101775.63
2022-12-07T05:04:35.546Z,101776.72
2022-12-07T05:05:07.329Z,101775.63
2022-12-07T05:05:42.303Z,101773.25
2022-12-07T05:06:14.799Z,101787.50
2022-12-07T05:06:46.145Z,101789.41
2022-12-07T05:07:17.501Z,101771.16
2022-12-07T05:07:48.965Z,101784.31
2022-12-07T05:08:20.422Z,101781.16
2022-12-07T05:08:51.931Z,101775.44
2022-12-07T05:09:24.320Z,101774.66
2022-12-07T05:09:55.699Z,101768.78
2022-12-07T05:10:27.157Z,101777.38
2022-12-07T05:10:58.499Z,101774.66
2022-12-07T05:11:39.019Z,101773.88
2022-12-07T05:12:10.452Z,101777.66
2022-12-07T05:12:41.846Z,101773.38
2022-12-07T05:13:13.391Z,101775.28
2022-12-07T05:13:44.734Z,101769.38
2022-12-07T05:14:21.440Z,101769.88
2022-12-07T05:14:52.921Z,101768.28
2022-12-07T05:15:24.376Z,101776.06
2022-12-07T05:15:55.814Z,101767.47
2022-12-07T05:16:27.635Z,101767.97
2022-12-07T05:16:58.989Z,101771.28
2022-12-07T05:17:30.360Z,101776.66
2022-12-07T05:18:02.016Z,101771.28
2022-12-07T05:18:33.383Z,101769.69
2022-12-07T05:19:05.933Z,101769.50
2022-12-07T05:19:37.274Z,101771.88
2022-12-07T05:20:10.219Z,101776.16
2022-12-07T05:20:42.898Z,101778.06
2022-12-07T05:21:14.315Z,101778.88
2022-12-07T05:21:46.371Z,101779.47
2022-12-07T05:22:17.775Z,101778.38
2022-12-07T05:22:49.168Z,101769.28
2022-12-07T05:23:20.998Z,101776.78
2022-12-07T05:23:52.391Z,101776.28
2022-12-07T05:24:23.932Z,101770.38
2022-12-07T05:24:56.337Z,101772.78
2022-12-07T05:25:27.890Z,101771.19
2022-12-07T05:25:59.944Z,101766.09
2022-12-07T05:26:31.356Z,101772.59
2022-12-07T05:27:02.713Z,101771.47
2022-12-07T05:27:34.060Z,101776.06
2022-12-07T05:28:06.031Z,101772.09
2022-12-07T05:28:37.575Z,101772.09
2022-12-07T05:29:13.421Z,101771.31
2022-12-07T05:29:44.793Z,101777.00
2022-12-07T05:30:16.440Z,101769.22
2022-12-07T05:30:47.936Z,101778.41
2022-12-07T05:31:19.687Z,101771.63
2022-12-07T05:31:51.119Z,101768.72
2022-12-07T05:32:22.667Z,101777.59
2022-12-07T05:32:54.288Z,101772.50
2022-12-07T05:33:25.610Z,101768.22
2022-12-07T05:33:57.011Z,101773.63
2022-12-07T05:34:28.383Z,101779.78
2022-12-07T05:34:59.802Z,101772.00
2022-12-07T05:35:31.140Z,101765.34
2022-12-07T05:36:08.230Z,101772.31
2022-12-07T05:36:40.139Z,101772.00
2022-12-07T05:37:11.561Z,101766.94
2022-12-07T05:38:01.581Z,101780.91
2022-12-07T05:38:34.057Z,101768.53
2022-12-07T05:39:05.572Z,101774.22
2022-12-07T05:39:38.693Z,101775.81
2022-12-07T05:40:11.299Z,101777.69
2022-12-07T05:41:02.195Z,101769.91
2022-12-07T05:41:52.395Z,101767.72
2022-12-07T05:42:23.871Z,101769.91
2022-12-07T05:42:57.711Z,101776.41
2022-12-07T05:43:32.255Z,101775.59
2022-12-07T05:44:04.525Z,101778.59
2022-12-07T05:44:54.475Z,101774.59
2022-12-07T05:45:26.019Z,101775.69
2022-12-07T05:45:58.331Z,101780.00
2022-12-07T05:46:29.771Z,101778.41
2022-12-07T05:47:01.274Z,101774.09
2022-12-07T05:47:32.654Z,101767.16
2022-12-07T05:48:04.217Z,101777.13
2022-12-07T05:48:35.682Z,101774.91
2022-12-07T05:49:07.101Z,101770.94
2022-12-07T05:49:38.590Z,101773.34
2022-12-07T05:50:10.069Z,101772.84
2022-12-07T05:50:41.400Z,101777.94
2022-12-07T05:51:12.897Z,101772.03
2022-12-07T05:51:44.361Z,101775.53
2022-12-07T05:52:16.013Z,101779.03
2022-12-07T05:52:47.426Z,101778.22
2022-12-07T05:53:23.050Z,101777.94
2022-12-07T05:53:55.273Z,101773.63
2022-12-07T05:54:26.726Z,101775.03
2022-12-07T05:54:58.117Z,101781.72
2022-12-07T05:55:29.490Z,101778.22
2022-12-07T05:56:00.897Z,101774.22
2022-12-07T05:56:32.333Z,101775.84
2022-12-07T05:57:03.767Z,101778.22
2022-12-07T05:57:35.165Z,101778.72
2022-12-07T05:58:25.039Z,101779.03
2022-12-07T05:59:15.080Z,101785.22
2022-12-07T05:59:46.413Z,101776.63
2022-12-07T06:00:17.935Z,101776.63
2022-12-07T06:00:51.271Z,101780.13
2022-12-07T06:01:23.013Z,101774.72
2022-12-07T06:01:59.964Z,101775.03
2022-12-07T06:02:31.565Z,101774.22
2022-12-07T06:03:03.154Z,101780.72
2022-12-07T06:03:34.659Z,101776.13
2022-12-07T06:04:06.115Z,101780.72
2022-12-07T06:04:40.028Z,101777.72
2022-12-07T06:05:11.462Z,101777.22
2022-12-07T06:05:43.217Z,101779.13
2022-12-07T06:06:14.639Z,101786.09
2022-12-07T06:06:46.380Z,101780.72
2022-12-07T06:07:18.040Z,101779.13
2022-12-07T06:07:49.461Z,101778.03
2022-12-07T06:08:20.975Z,101782.59
2022-12-07T06:08:52.583Z,101783.41
2022-12-07T06:09:25.252Z,101783.09
2022-12-07T06:09:56.646Z,101780.72
2022-12-07T06:10:28.031Z,101782.31
2022-12-07T06:11:17.687Z,101769.94
2022-12-07T06:12:08.338Z,101773.72
2022-12-07T06:12:40.386Z,101778.81
2022-12-07T06:13:11.923Z,101777.53
2022-12-07T06:13:47.212Z,101778.31
2022-12-07T06:15:08.223Z,101777.53
2022-12-07T06:15:39.591Z,101774.81
2022-12-07T06:16:11.000Z,101782.09
2022-12-07T06:16:42.642Z,101778.91
2022-12-07T06:17:14.331Z,101778.13
2022-12-07T06:17:45.839Z,101781.31
2022-12-07T06:18:17.258Z,101784.31
2022-12-07T06:18:48.728Z,101781.91
2022-12-07T06:19:20.089Z,101778.13
2022-12-07T06:19:51.804Z,101786.69
2022-12-07T06:20:23.173Z,101774.13
2022-12-07T06:20:54.760Z,101775.44
2022-12-07T06:21:27.543Z,101775.44
2022-12-07T06:21:59.848Z,101781.31
2022-12-07T06:22:31.417Z,101781.31
2022-12-07T06:23:02.805Z,101783.50
2022-12-07T06:23:34.140Z,101773.53
2022-12-07T06:24:06.062Z,101779.72
2022-12-07T06:24:37.572Z,101779.72
2022-12-07T06:25:09.712Z,101772.72
2022-12-07T06:25:46.617Z,101780.50
2022-12-07T06:26:18.012Z,101780.50
2022-12-07T06:26:49.786Z,101784.50
2022-12-07T06:27:21.191Z,101780.22
2022-12-07T06:27:52.579Z,101775.94
2022-12-07T06:28:23.916Z,101789.09
2022-12-07T06:28:55.259Z,101773.44
2022-12-07T06:29:26.696Z,101786.59
2022-12-07T06:29:58.019Z,101782.81
2022-12-07T06:30:29.346Z,101776.13
2022-12-07T06:31:02.715Z,101782.50
2022-12-07T06:31:34.258Z,101782.00
2022-12-07T06:32:06.429Z,101786.00
2022-12-07T06:32:38.103Z,101783.31
2022-12-07T06:33:09.419Z,101777.44
2022-12-07T06:33:41.736Z,101786.47
2022-12-07T06:34:18.193Z,101775.84
2022-12-07T06:35:08.417Z,101780.28
2022-12-07T06:35:39.903Z,101787.56
2022-12-07T06:36:11.338Z,101786.00
2022-12-07T06:36:42.822Z,101783.31
2022-12-07T06:37:14.220Z,101783.78
2022-12-07T06:37:45.760Z,101778.22
2022-12-07T06:38:17.140Z,101781.88
2022-12-07T06:38:48.576Z,101781.09
2022-12-07T06:39:21.529Z,101785.38
2022-12-07T06:39:52.928Z,101784.59
2022-12-07T06:40:26.571Z,101781.72
2022-12-07T06:40:58.181Z,101779.81
2022-12-07T06:41:29.780Z,101781.88
2022-12-07T06:42:01.633Z,101786.97
2022-12-07T06:42:36.093Z,101787.78